sensor_id;sensor_type;location;lat;lon;timestamp;P1;durP1;ratioP1;P2;durP2;ratioP2
61685;SDS011;47592;45.904;8.978;2024-03-22T00:00:21;11.90;;;3.00;;
61685;SDS011;47592;45.904;8.978;2024-03-22T00:02:46;7.43;;;2.85;;
61685;SDS011;47592;45.904;8.978;2024-03-22T00:05:11;7.35;;;2.83;;
61685;SDS011;47592;45.904;8.978;2024-03-22T00:07:37;7.95;;;3.17;;
61685;SDS011;47592;45.904;8.978;2024-03-22T00:10:05;10.88;;;3.30;;
61685;SDS011;47592;45.904;8.978;2024-03-22T00:12:33;7.10;;;3.42;;
61685;SDS011;47592;45.904;8.978;2024-03-22T00:14:59;7.70;;;3.72;;
61685;SDS011;47592;45.904;8.978;2024-03-22T00:17:24;9.27;;;3.35;;
61685;SDS011;47592;45.904;8.978;2024-03-22T00:19:49;8.65;;;4.00;;
61685;SDS011;47592;45.904;8.978;2024-03-22T00:22:17;7.72;;;3.88;;
61685;SDS011;47592;45.904;8.978;2024-03-22T00:24:42;13.13;;;5.28;;
61685;SDS011;47592;45.904;8.978;2024-03-22T00:27:08;10.45;;;5.45;;
61685;SDS011;47592;45.904;8.978;2024-03-22T00:29:36;11.73;;;6.20;;
61685;SDS011;47592;45.904;8.978;2024-03-22T00:32:02;11.13;;;6.05;;
61685;SDS011;47592;45.904;8.978;2024-03-22T00:34:29;9.50;;;5.20;;
61685;SDS011;47592;45.904;8.978;2024-03-22T00:36:55;12.35;;;6.15;;
61685;SDS011;47592;45.904;8.978;2024-03-22T00:39:20;11.02;;;5.72;;
61685;SDS011;47592;45.904;8.978;2024-03-22T00:41:46;11.70;;;6.13;;
61685;SDS011;47592;45.904;8.978;2024-03-22T00:44:13;27.23;;;16.52;;
61685;SDS011;47592;45.904;8.978;2024-03-22T00:46:43;35.33;;;21.75;;
61685;SDS011;47592;45.904;8.978;2024-03-22T00:49:11;36.58;;;22.52;;
61685;SDS011;47592;45.904;8.978;2024-03-22T00:51:41;37.45;;;22.92;;
61685;SDS011;47592;45.904;8.978;2024-03-22T00:54:09;34.78;;;22.70;;
61685;SDS011;47592;45.904;8.978;2024-03-22T00:56:34;40.55;;;24.35;;
61685;SDS011;47592;45.904;8.978;2024-03-22T00:59:02;41.22;;;25.70;;
61685;SDS011;47592;45.904;8.978;2024-03-22T01:01:32;43.15;;;25.98;;
61685;SDS011;47592;45.904;8.978;2024-03-22T01:03:57;51.10;;;31.42;;
61685;SDS011;47592;45.904;8.978;2024-03-22T01:06:23;44.17;;;27.63;;
61685;SDS011;47592;45.904;8.978;2024-03-22T01:08:50;50.13;;;30.13;;
61685;SDS011;47592;45.904;8.978;2024-03-22T01:11:18;47.33;;;30.63;;
61685;SDS011;47592;45.904;8.978;2024-03-22T01:13:43;52.10;;;33.72;;
61685;SDS011;47592;45.904;8.978;2024-03-22T01:16:11;57.15;;;35.08;;
61685;SDS011;47592;45.904;8.978;2024-03-22T01:18:37;57.85;;;35.95;;
61685;SDS011;47592;45.904;8.978;2024-03-22T01:21:02;57.28;;;35.58;;
61685;SDS011;47592;45.904;8.978;2024-03-22T01:23:28;57.78;;;36.53;;
61685;SDS011;47592;45.904;8.978;2024-03-22T01:25:53;60.22;;;35.38;;
61685;SDS011;47592;45.904;8.978;2024-03-22T01:28:19;56.22;;;35.63;;
61685;SDS011;47592;45.904;8.978;2024-03-22T01:30:44;57.88;;;34.13;;
61685;SDS011;47592;45.904;8.978;2024-03-22T01:33:12;55.38;;;34.83;;
61685;SDS011;47592;45.904;8.978;2024-03-22T01:35:37;57.10;;;35.28;;
61685;SDS011;47592;45.904;8.978;2024-03-22T01:38:03;61.47;;;36.10;;
61685;SDS011;47592;45.904;8.978;2024-03-22T01:40:28;55.10;;;34.22;;
61685;SDS011;47592;45.904;8.978;2024-03-22T01:42:57;58.78;;;36.58;;
61685;SDS011;47592;45.904;8.978;2024-03-22T01:45:23;59.73;;;37.03;;
61685;SDS011;47592;45.904;8.978;2024-03-22T01:47:50;58.60;;;35.58;;
61685;SDS011;47592;45.904;8.978;2024-03-22T01:50:16;61.83;;;36.30;;
61685;SDS011;47592;45.904;8.978;2024-03-22T01:52:47;62.08;;;36.95;;
61685;SDS011;47592;45.904;8.978;2024-03-22T01:55:13;59.53;;;35.33;;
61685;SDS011;47592;45.904;8.978;2024-03-22T01:57:44;56.43;;;35.63;;
61685;SDS011;47592;45.904;8.978;2024-03-22T02:00:09;54.42;;;35.45;;
61685;SDS011;47592;45.904;8.978;2024-03-22T02:02:35;58.75;;;36.75;;
61685;SDS011;47592;45.904;8.978;2024-03-22T02:05:17;61.03;;;37.83;;
61685;SDS011;47592;45.904;8.978;2024-03-22T02:07:46;60.72;;;36.30;;
61685;SDS011;47592;45.904;8.978;2024-03-22T02:10:15;60.43;;;37.77;;
61685;SDS011;47592;45.904;8.978;2024-03-22T02:12:41;57.95;;;37.67;;
61685;SDS011;47592;45.904;8.978;2024-03-22T02:15:07;56.25;;;35.53;;
61685;SDS011;47592;45.904;8.978;2024-03-22T02:17:33;54.63;;;34.75;;
61685;SDS011;47592;45.904;8.978;2024-03-22T02:19:59;56.63;;;34.28;;
61685;SDS011;47592;45.904;8.978;2024-03-22T02:22:26;53.58;;;33.05;;
61685;SDS011;47592;45.904;8.978;2024-03-22T02:24:51;53.92;;;33.83;;
61685;SDS011;47592;45.904;8.978;2024-03-22T02:27:19;49.38;;;31.80;;
61685;SDS011;47592;45.904;8.978;2024-03-22T02:29:44;50.30;;;30.92;;
61685;SDS011;47592;45.904;8.978;2024-03-22T02:32:10;49.97;;;32.08;;
61685;SDS011;47592;45.904;8.978;2024-03-22T02:34:35;51.55;;;32.38;;
61685;SDS011;47592;45.904;8.978;2024-03-22T02:37:01;53.60;;;33.20;;
61685;SDS011;47592;45.904;8.978;2024-03-22T02:39:28;49.03;;;31.17;;
61685;SDS011;47592;45.904;8.978;2024-03-22T02:41:54;51.00;;;32.90;;
61685;SDS011;47592;45.904;8.978;2024-03-22T02:44:22;56.05;;;32.22;;
61685;SDS011;47592;45.904;8.978;2024-03-22T02:46:48;51.47;;;32.15;;
61685;SDS011;47592;45.904;8.978;2024-03-22T02:49:18;54.65;;;33.80;;
61685;SDS011;47592;45.904;8.978;2024-03-22T02:51:43;54.92;;;34.90;;
61685;SDS011;47592;45.904;8.978;2024-03-22T02:54:09;52.97;;;32.72;;
61685;SDS011;47592;45.904;8.978;2024-03-22T02:56:34;54.80;;;33.40;;
61685;SDS011;47592;45.904;8.978;2024-03-22T03:01:29;53.33;;;32.33;;
61685;SDS011;47592;45.904;8.978;2024-03-22T03:03:56;55.75;;;34.70;;
61685;SDS011;47592;45.904;8.978;2024-03-22T03:06:22;56.50;;;34.03;;
61685;SDS011;47592;45.904;8.978;2024-03-22T03:08:50;56.22;;;33.53;;
61685;SDS011;47592;45.904;8.978;2024-03-22T03:11:15;56.00;;;34.75;;
61685;SDS011;47592;45.904;8.978;2024-03-22T03:13:40;58.20;;;33.63;;
61685;SDS011;47592;45.904;8.978;2024-03-22T03:16:06;54.88;;;32.78;;
61685;SDS011;47592;45.904;8.978;2024-03-22T03:18:33;57.50;;;34.60;;
61685;SDS011;47592;45.904;8.978;2024-03-22T03:21:01;55.63;;;34.03;;
61685;SDS011;47592;45.904;8.978;2024-03-22T03:23:27;53.83;;;33.58;;
61685;SDS011;47592;45.904;8.978;2024-03-22T03:25:57;57.95;;;34.97;;
61685;SDS011;47592;45.904;8.978;2024-03-22T03:28:22;52.75;;;33.47;;
61685;SDS011;47592;45.904;8.978;2024-03-22T03:30:48;53.90;;;32.35;;
61685;SDS011;47592;45.904;8.978;2024-03-22T03:33:13;52.78;;;33.20;;
61685;SDS011;47592;45.904;8.978;2024-03-22T03:35:44;55.22;;;33.70;;
61685;SDS011;47592;45.904;8.978;2024-03-22T03:38:13;56.10;;;33.83;;
61685;SDS011;47592;45.904;8.978;2024-03-22T03:40:41;54.13;;;32.53;;
61685;SDS011;47592;45.904;8.978;2024-03-22T03:43:06;54.08;;;32.38;;
61685;SDS011;47592;45.904;8.978;2024-03-22T03:45:37;50.90;;;31.67;;
61685;SDS011;47592;45.904;8.978;2024-03-22T03:48:02;54.38;;;32.10;;
61685;SDS011;47592;45.904;8.978;2024-03-22T03:50:31;54.22;;;32.97;;
61685;SDS011;47592;45.904;8.978;2024-03-22T03:52:58;55.58;;;31.95;;
61685;SDS011;47592;45.904;8.978;2024-03-22T03:55:26;49.22;;;30.23;;
61685;SDS011;47592;45.904;8.978;2024-03-22T03:57:54;48.92;;;30.00;;
61685;SDS011;47592;45.904;8.978;2024-03-22T04:00:19;49.00;;;30.20;;
61685;SDS011;47592;45.904;8.978;2024-03-22T04:02:51;51.80;;;31.83;;
61685;SDS011;47592;45.904;8.978;2024-03-22T04:05:16;52.25;;;31.98;;
61685;SDS011;47592;45.904;8.978;2024-03-22T04:07:49;52.38;;;30.27;;
61685;SDS011;47592;45.904;8.978;2024-03-22T04:10:14;51.03;;;31.02;;
61685;SDS011;47592;45.904;8.978;2024-03-22T04:12:40;52.17;;;31.40;;
61685;SDS011;47592;45.904;8.978;2024-03-22T04:15:07;48.92;;;30.83;;
61685;SDS011;47592;45.904;8.978;2024-03-22T04:17:33;54.42;;;31.88;;
61685;SDS011;47592;45.904;8.978;2024-03-22T04:19:58;48.50;;;30.38;;
61685;SDS011;47592;45.904;8.978;2024-03-22T04:22:27;49.60;;;30.40;;
61685;SDS011;47592;45.904;8.978;2024-03-22T04:24:57;48.40;;;30.38;;
61685;SDS011;47592;45.904;8.978;2024-03-22T04:27:23;50.80;;;31.35;;
61685;SDS011;47592;45.904;8.978;2024-03-22T04:29:50;52.50;;;31.00;;
61685;SDS011;47592;45.904;8.978;2024-03-22T04:32:17;54.55;;;31.05;;
61685;SDS011;47592;45.904;8.978;2024-03-22T04:34:44;49.88;;;29.45;;
61685;SDS011;47592;45.904;8.978;2024-03-22T04:37:12;52.35;;;30.40;;
61685;SDS011;47592;45.904;8.978;2024-03-22T04:39:38;53.53;;;31.15;;
61685;SDS011;47592;45.904;8.978;2024-03-22T04:42:04;59.00;;;32.85;;
61685;SDS011;47592;45.904;8.978;2024-03-22T04:44:31;57.50;;;32.88;;
61685;SDS011;47592;45.904;8.978;2024-03-22T04:46:57;54.80;;;31.73;;
61685;SDS011;47592;45.904;8.978;2024-03-22T04:49:22;55.22;;;32.40;;
61685;SDS011;47592;45.904;8.978;2024-03-22T04:51:48;52.42;;;31.40;;
61685;SDS011;47592;45.904;8.978;2024-03-22T04:54:16;51.42;;;30.90;;
61685;SDS011;47592;45.904;8.978;2024-03-22T04:56:41;54.33;;;31.02;;
61685;SDS011;47592;45.904;8.978;2024-03-22T04:59:09;54.65;;;32.20;;
61685;SDS011;47592;45.904;8.978;2024-03-22T05:01:34;53.28;;;31.30;;
61685;SDS011;47592;45.904;8.978;2024-03-22T05:04:00;49.25;;;30.23;;
61685;SDS011;47592;45.904;8.978;2024-03-22T05:06:25;52.97;;;31.33;;
61685;SDS011;47592;45.904;8.978;2024-03-22T05:08:51;53.38;;;32.55;;
61685;SDS011;47592;45.904;8.978;2024-03-22T05:11:21;55.10;;;33.65;;
61685;SDS011;47592;45.904;8.978;2024-03-22T05:13:46;58.33;;;33.45;;
61685;SDS011;47592;45.904;8.978;2024-03-22T05:16:12;57.28;;;33.83;;
61685;SDS011;47592;45.904;8.978;2024-03-22T05:18:37;53.30;;;32.72;;
61685;SDS011;47592;45.904;8.978;2024-03-22T05:21:03;50.58;;;31.92;;
61685;SDS011;47592;45.904;8.978;2024-03-22T05:23:28;53.40;;;32.17;;
61685;SDS011;47592;45.904;8.978;2024-03-22T05:25:56;56.78;;;33.28;;
61685;SDS011;47592;45.904;8.978;2024-03-22T05:28:21;55.30;;;33.08;;
61685;SDS011;47592;45.904;8.978;2024-03-22T05:30:49;57.80;;;33.00;;
61685;SDS011;47592;45.904;8.978;2024-03-22T05:33:17;57.63;;;35.05;;
61685;SDS011;47592;45.904;8.978;2024-03-22T05:35:42;55.80;;;33.50;;
61685;SDS011;47592;45.904;8.978;2024-03-22T05:38:07;56.30;;;32.22;;
61685;SDS011;47592;45.904;8.978;2024-03-22T05:40:35;59.38;;;34.45;;
61685;SDS011;47592;45.904;8.978;2024-03-22T05:43:01;62.75;;;35.38;;
61685;SDS011;47592;45.904;8.978;2024-03-22T05:45:27;57.90;;;33.97;;
61685;SDS011;47592;45.904;8.978;2024-03-22T05:47:52;59.22;;;34.80;;
61685;SDS011;47592;45.904;8.978;2024-03-22T05:50:18;58.90;;;33.60;;
61685;SDS011;47592;45.904;8.978;2024-03-22T05:52:48;57.80;;;34.72;;
61685;SDS011;47592;45.904;8.978;2024-03-22T05:55:13;57.88;;;34.88;;
61685;SDS011;47592;45.904;8.978;2024-03-22T05:57:38;59.65;;;35.08;;
61685;SDS011;47592;45.904;8.978;2024-03-22T06:00:05;62.22;;;37.38;;
61685;SDS011;47592;45.904;8.978;2024-03-22T06:02:32;60.97;;;36.13;;
61685;SDS011;47592;45.904;8.978;2024-03-22T06:04:59;62.22;;;36.70;;
61685;SDS011;47592;45.904;8.978;2024-03-22T06:07:25;61.13;;;34.55;;
61685;SDS011;47592;45.904;8.978;2024-03-22T06:10:03;62.15;;;34.20;;
61685;SDS011;47592;45.904;8.978;2024-03-22T06:12:29;49.20;;;29.67;;
61685;SDS011;47592;45.904;8.978;2024-03-22T06:14:57;54.40;;;29.05;;
61685;SDS011;47592;45.904;8.978;2024-03-22T06:17:22;38.55;;;23.85;;
61685;SDS011;47592;45.904;8.978;2024-03-22T06:19:50;37.95;;;22.70;;
61685;SDS011;47592;45.904;8.978;2024-03-22T06:22:18;36.30;;;22.23;;
61685;SDS011;47592;45.904;8.978;2024-03-22T06:24:44;36.20;;;21.08;;
61685;SDS011;47592;45.904;8.978;2024-03-22T06:27:12;33.88;;;19.60;;
61685;SDS011;47592;45.904;8.978;2024-03-22T06:29:38;32.78;;;19.40;;
61685;SDS011;47592;45.904;8.978;2024-03-22T06:32:04;35.30;;;20.60;;
61685;SDS011;47592;45.904;8.978;2024-03-22T06:34:29;33.35;;;19.83;;
61685;SDS011;47592;45.904;8.978;2024-03-22T06:36:55;33.42;;;19.98;;
61685;SDS011;47592;45.904;8.978;2024-03-22T06:39:21;31.13;;;17.75;;
61685;SDS011;47592;45.904;8.978;2024-03-22T06:41:46;31.10;;;19.02;;
61685;SDS011;47592;45.904;8.978;2024-03-22T06:44:11;34.13;;;19.13;;
61685;SDS011;47592;45.904;8.978;2024-03-22T06:46:39;31.38;;;18.48;;
61685;SDS011;47592;45.904;8.978;2024-03-22T06:49:04;34.05;;;19.83;;
61685;SDS011;47592;45.904;8.978;2024-03-22T06:51:32;31.02;;;18.25;;
61685;SDS011;47592;45.904;8.978;2024-03-22T06:54:00;29.30;;;16.75;;
61685;SDS011;47592;45.904;8.978;2024-03-22T06:56:27;29.67;;;17.70;;
61685;SDS011;47592;45.904;8.978;2024-03-22T06:58:53;30.38;;;16.73;;
61685;SDS011;47592;45.904;8.978;2024-03-22T07:01:18;29.95;;;16.13;;
61685;SDS011;47592;45.904;8.978;2024-03-22T07:03:45;27.95;;;16.52;;
61685;SDS011;47592;45.904;8.978;2024-03-22T07:06:11;30.25;;;17.35;;
61685;SDS011;47592;45.904;8.978;2024-03-22T07:08:37;29.08;;;16.88;;
61685;SDS011;47592;45.904;8.978;2024-03-22T07:11:07;30.00;;;17.88;;
61685;SDS011;47592;45.904;8.978;2024-03-22T07:13:41;33.03;;;17.58;;
61685;SDS011;47592;45.904;8.978;2024-03-22T07:16:09;31.13;;;18.73;;
61685;SDS011;47592;45.904;8.978;2024-03-22T07:18:35;28.85;;;17.30;;
61685;SDS011;47592;45.904;8.978;2024-03-22T07:21:03;30.10;;;17.20;;
61685;SDS011;47592;45.904;8.978;2024-03-22T07:23:29;34.65;;;19.63;;
61685;SDS011;47592;45.904;8.978;2024-03-22T07:25:54;30.52;;;18.17;;
61685;SDS011;47592;45.904;8.978;2024-03-22T07:28:20;31.83;;;17.98;;
61685;SDS011;47592;45.904;8.978;2024-03-22T07:30:46;30.90;;;17.58;;
61685;SDS011;47592;45.904;8.978;2024-03-22T07:33:12;27.05;;;16.08;;
61685;SDS011;47592;45.904;8.978;2024-03-22T07:35:42;28.58;;;17.45;;
61685;SDS011;47592;45.904;8.978;2024-03-22T07:38:08;26.00;;;16.10;;
61685;SDS011;47592;45.904;8.978;2024-03-22T07:40:34;30.15;;;17.65;;
61685;SDS011;47592;45.904;8.978;2024-03-22T07:42:59;28.40;;;17.27;;
61685;SDS011;47592;45.904;8.978;2024-03-22T07:45:24;30.10;;;17.45;;
61685;SDS011;47592;45.904;8.978;2024-03-22T07:47:50;28.23;;;16.77;;
61685;SDS011;47592;45.904;8.978;2024-03-22T07:50:16;27.73;;;16.48;;
61685;SDS011;47592;45.904;8.978;2024-03-22T07:52:42;25.35;;;15.98;;
61685;SDS011;47592;45.904;8.978;2024-03-22T07:55:07;26.75;;;15.82;;
61685;SDS011;47592;45.904;8.978;2024-03-22T07:57:33;25.08;;;15.82;;
61685;SDS011;47592;45.904;8.978;2024-03-22T07:59:58;25.35;;;15.15;;
61685;SDS011;47592;45.904;8.978;2024-03-22T08:02:23;25.58;;;15.32;;
61685;SDS011;47592;45.904;8.978;2024-03-22T08:04:49;24.95;;;15.15;;
61685;SDS011;47592;45.904;8.978;2024-03-22T08:07:19;27.27;;;15.32;;
61685;SDS011;47592;45.904;8.978;2024-03-22T08:09:44;25.73;;;15.48;;
61685;SDS011;47592;45.904;8.978;2024-03-22T08:12:10;26.92;;;15.98;;
61685;SDS011;47592;45.904;8.978;2024-03-22T08:14:37;25.75;;;16.13;;
61685;SDS011;47592;45.904;8.978;2024-03-22T08:17:03;23.63;;;15.55;;
61685;SDS011;47592;45.904;8.978;2024-03-22T08:19:28;26.15;;;16.17;;
61685;SDS011;47592;45.904;8.978;2024-03-22T08:21:54;26.98;;;16.15;;
61685;SDS011;47592;45.904;8.978;2024-03-22T08:24:19;26.23;;;16.50;;
61685;SDS011;47592;45.904;8.978;2024-03-22T08:26:47;29.02;;;17.05;;
61685;SDS011;47592;45.904;8.978;2024-03-22T08:29:15;29.92;;;17.42;;
61685;SDS011;47592;45.904;8.978;2024-03-22T08:31:40;27.70;;;17.40;;
61685;SDS011;47592;45.904;8.978;2024-03-22T08:34:07;26.75;;;18.13;;
61685;SDS011;47592;45.904;8.978;2024-03-22T08:36:33;32.83;;;18.55;;
61685;SDS011;47592;45.904;8.978;2024-03-22T08:38:58;31.63;;;18.40;;
61685;SDS011;47592;45.904;8.978;2024-03-22T08:41:23;26.40;;;16.77;;
61685;SDS011;47592;45.904;8.978;2024-03-22T08:43:49;29.45;;;18.75;;
61685;SDS011;47592;45.904;8.978;2024-03-22T08:46:14;28.73;;;18.13;;
61685;SDS011;47592;45.904;8.978;2024-03-22T08:48:42;32.45;;;19.20;;
61685;SDS011;47592;45.904;8.978;2024-03-22T08:51:10;32.03;;;20.38;;
61685;SDS011;47592;45.904;8.978;2024-03-22T08:53:35;31.20;;;19.23;;
61685;SDS011;47592;45.904;8.978;2024-03-22T08:56:00;33.10;;;19.85;;
61685;SDS011;47592;45.904;8.978;2024-03-22T08:58:28;34.05;;;21.65;;
61685;SDS011;47592;45.904;8.978;2024-03-22T09:00:54;35.05;;;20.35;;
61685;SDS011;47592;45.904;8.978;2024-03-22T09:03:22;36.45;;;21.65;;
61685;SDS011;47592;45.904;8.978;2024-03-22T09:05:49;43.38;;;25.88;;
61685;SDS011;47592;45.904;8.978;2024-03-22T09:08:17;41.97;;;24.98;;
61685;SDS011;47592;45.904;8.978;2024-03-22T09:10:43;45.35;;;26.77;;
61685;SDS011;47592;45.904;8.978;2024-03-22T09:13:10;38.15;;;23.40;;
61685;SDS011;47592;45.904;8.978;2024-03-22T09:15:40;58.95;;;34.78;;
61685;SDS011;47592;45.904;8.978;2024-03-22T09:18:08;55.58;;;34.50;;
61685;SDS011;47592;45.904;8.978;2024-03-22T09:20:33;55.13;;;32.63;;
61685;SDS011;47592;45.904;8.978;2024-03-22T09:22:59;50.35;;;30.00;;
61685;SDS011;47592;45.904;8.978;2024-03-22T09:25:24;46.97;;;29.02;;
61685;SDS011;47592;45.904;8.978;2024-03-22T09:27:50;45.47;;;28.70;;
61685;SDS011;47592;45.904;8.978;2024-03-22T09:30:15;42.03;;;26.63;;
61685;SDS011;47592;45.904;8.978;2024-03-22T09:32:43;41.20;;;26.05;;
61685;SDS011;47592;45.904;8.978;2024-03-22T09:35:13;46.83;;;27.92;;
61685;SDS011;47592;45.904;8.978;2024-03-22T09:37:42;50.13;;;30.17;;
61685;SDS011;47592;45.904;8.978;2024-03-22T09:40:10;49.67;;;29.27;;
61685;SDS011;47592;45.904;8.978;2024-03-22T09:42:37;48.72;;;30.65;;
61685;SDS011;47592;45.904;8.978;2024-03-22T09:45:04;42.80;;;26.85;;
61685;SDS011;47592;45.904;8.978;2024-03-22T09:47:33;42.03;;;25.90;;
61685;SDS011;47592;45.904;8.978;2024-03-22T09:49:59;41.92;;;25.63;;
61685;SDS011;47592;45.904;8.978;2024-03-22T09:52:28;42.50;;;24.83;;
61685;SDS011;47592;45.904;8.978;2024-03-22T09:54:58;39.88;;;24.38;;
61685;SDS011;47592;45.904;8.978;2024-03-22T09:57:29;39.70;;;25.27;;
61685;SDS011;47592;45.904;8.978;2024-03-22T09:59:57;42.13;;;25.70;;
61685;SDS011;47592;45.904;8.978;2024-03-22T10:02:23;41.00;;;25.38;;
61685;SDS011;47592;45.904;8.978;2024-03-22T10:04:51;39.63;;;25.45;;
61685;SDS011;47592;45.904;8.978;2024-03-22T10:07:19;37.85;;;23.70;;
61685;SDS011;47592;45.904;8.978;2024-03-22T10:09:44;37.65;;;25.17;;
61685;SDS011;47592;45.904;8.978;2024-03-22T10:12:12;38.83;;;24.73;;
61685;SDS011;47592;45.904;8.978;2024-03-22T10:14:42;41.22;;;26.13;;
61685;SDS011;47592;45.904;8.978;2024-03-22T10:17:08;43.08;;;26.38;;
61685;SDS011;47592;45.904;8.978;2024-03-22T10:19:37;37.85;;;24.00;;
61685;SDS011;47592;45.904;8.978;2024-03-22T10:22:08;37.58;;;23.15;;
61685;SDS011;47592;45.904;8.978;2024-03-22T10:24:35;35.58;;;20.95;;
61685;SDS011;47592;45.904;8.978;2024-03-22T10:27:01;36.42;;;21.55;;
61685;SDS011;47592;45.904;8.978;2024-03-22T10:29:27;36.13;;;21.48;;
61685;SDS011;47592;45.904;8.978;2024-03-22T10:31:54;32.30;;;21.55;;
61685;SDS011;47592;45.904;8.978;2024-03-22T10:34:21;34.22;;;21.77;;
61685;SDS011;47592;45.904;8.978;2024-03-22T10:36:49;34.92;;;22.17;;
61685;SDS011;47592;45.904;8.978;2024-03-22T10:39:16;36.00;;;21.92;;
61685;SDS011;47592;45.904;8.978;2024-03-22T10:41:47;32.25;;;20.67;;
61685;SDS011;47592;45.904;8.978;2024-03-22T10:44:17;27.20;;;18.02;;
61685;SDS011;47592;45.904;8.978;2024-03-22T10:46:43;21.88;;;13.40;;
61685;SDS011;47592;45.904;8.978;2024-03-22T10:49:18;20.83;;;12.65;;
61685;SDS011;47592;45.904;8.978;2024-03-22T10:54:18;18.40;;;11.65;;
61685;SDS011;47592;45.904;8.978;2024-03-22T10:56:48;21.30;;;12.75;;
61685;SDS011;47592;45.904;8.978;2024-03-22T10:59:14;21.33;;;12.45;;
61685;SDS011;47592;45.904;8.978;2024-03-22T11:01:45;20.73;;;12.88;;
61685;SDS011;47592;45.904;8.978;2024-03-22T11:04:19;20.38;;;12.70;;
61685;SDS011;47592;45.904;8.978;2024-03-22T11:06:48;18.67;;;11.70;;
61685;SDS011;47592;45.904;8.978;2024-03-22T11:09:21;18.77;;;11.38;;
61685;SDS011;47592;45.904;8.978;2024-03-22T11:11:47;18.02;;;11.55;;
61685;SDS011;47592;45.904;8.978;2024-03-22T11:14:14;20.02;;;12.45;;
61685;SDS011;47592;45.904;8.978;2024-03-22T11:16:43;14.30;;;8.73;;
61685;SDS011;47592;45.904;8.978;2024-03-22T11:21:38;15.75;;;9.85;;
61685;SDS011;47592;45.904;8.978;2024-03-22T11:24:06;16.88;;;10.95;;
61685;SDS011;47592;45.904;8.978;2024-03-22T11:26:35;17.00;;;9.25;;
61685;SDS011;47592;45.904;8.978;2024-03-22T11:29:00;17.67;;;10.23;;
61685;SDS011;47592;45.904;8.978;2024-03-22T11:31:26;13.70;;;8.43;;
61685;SDS011;47592;45.904;8.978;2024-03-22T11:33:55;17.50;;;11.00;;
61685;SDS011;47592;45.904;8.978;2024-03-22T11:36:23;22.00;;;11.32;;
61685;SDS011;47592;45.904;8.978;2024-03-22T11:38:51;18.50;;;11.27;;
61685;SDS011;47592;45.904;8.978;2024-03-22T11:41:25;17.23;;;11.05;;
61685;SDS011;47592;45.904;8.978;2024-03-22T11:43:52;18.75;;;11.23;;
61685;SDS011;47592;45.904;8.978;2024-03-22T11:46:18;20.70;;;12.43;;
61685;SDS011;47592;45.904;8.978;2024-03-22T11:48:43;17.48;;;11.35;;
61685;SDS011;47592;45.904;8.978;2024-03-22T11:51:11;18.88;;;11.88;;
61685;SDS011;47592;45.904;8.978;2024-03-22T11:53:37;19.85;;;12.00;;
61685;SDS011;47592;45.904;8.978;2024-03-22T11:56:02;19.27;;;11.10;;
61685;SDS011;47592;45.904;8.978;2024-03-22T11:58:31;18.10;;;11.77;;
61685;SDS011;47592;45.904;8.978;2024-03-22T12:00:59;18.70;;;11.70;;
61685;SDS011;47592;45.904;8.978;2024-03-22T12:03:28;20.58;;;12.07;;
61685;SDS011;47592;45.904;8.978;2024-03-22T12:05:57;20.63;;;12.35;;
61685;SDS011;47592;45.904;8.978;2024-03-22T12:08:22;18.30;;;12.30;;
61685;SDS011;47592;45.904;8.978;2024-03-22T12:10:50;19.25;;;11.32;;
61685;SDS011;47592;45.904;8.978;2024-03-22T12:13:15;21.13;;;11.52;;
61685;SDS011;47592;45.904;8.978;2024-03-22T12:15:41;17.15;;;11.02;;
61685;SDS011;47592;45.904;8.978;2024-03-22T12:18:06;19.67;;;12.15;;
61685;SDS011;47592;45.904;8.978;2024-03-22T12:20:34;19.60;;;11.40;;
61685;SDS011;47592;45.904;8.978;2024-03-22T12:23:01;19.27;;;10.88;;
61685;SDS011;47592;45.904;8.978;2024-03-22T12:25:27;19.05;;;11.70;;
61685;SDS011;47592;45.904;8.978;2024-03-22T12:27:53;17.17;;;12.07;;
61685;SDS011;47592;45.904;8.978;2024-03-22T12:30:21;22.90;;;14.15;;
61685;SDS011;47592;45.904;8.978;2024-03-22T12:32:51;21.90;;;12.85;;
61685;SDS011;47592;45.904;8.978;2024-03-22T12:35:19;19.15;;;13.02;;
61685;SDS011;47592;45.904;8.978;2024-03-22T12:37:44;18.95;;;12.65;;
61685;SDS011;47592;45.904;8.978;2024-03-22T12:40:09;22.83;;;14.70;;
61685;SDS011;47592;45.904;8.978;2024-03-22T12:42:39;20.70;;;13.27;;
61685;SDS011;47592;45.904;8.978;2024-03-22T12:45:07;26.27;;;17.08;;
61685;SDS011;47592;45.904;8.978;2024-03-22T12:47:33;23.95;;;15.57;;
61685;SDS011;47592;45.904;8.978;2024-03-22T12:49:58;26.15;;;16.25;;
61685;SDS011;47592;45.904;8.978;2024-03-22T12:52:23;26.35;;;17.17;;
61685;SDS011;47592;45.904;8.978;2024-03-22T12:54:51;27.17;;;16.33;;
61685;SDS011;47592;45.904;8.978;2024-03-22T12:57:16;22.27;;;16.30;;
61685;SDS011;47592;45.904;8.978;2024-03-22T12:59:43;25.95;;;16.85;;
61685;SDS011;47592;45.904;8.978;2024-03-22T13:02:15;24.35;;;16.73;;
61685;SDS011;47592;45.904;8.978;2024-03-22T13:04:40;27.52;;;16.15;;
61685;SDS011;47592;45.904;8.978;2024-03-22T13:07:05;28.52;;;15.70;;
61685;SDS011;47592;45.904;8.978;2024-03-22T13:09:33;23.35;;;15.95;;
61685;SDS011;47592;45.904;8.978;2024-03-22T13:12:01;24.55;;;16.73;;
61685;SDS011;47592;45.904;8.978;2024-03-22T13:14:27;23.92;;;15.80;;
61685;SDS011;47592;45.904;8.978;2024-03-22T13:16:55;23.52;;;15.38;;
61685;SDS011;47592;45.904;8.978;2024-03-22T13:19:21;23.55;;;14.93;;
61685;SDS011;47592;45.904;8.978;2024-03-22T13:21:48;23.45;;;15.65;;
61685;SDS011;47592;45.904;8.978;2024-03-22T13:24:14;20.55;;;14.02;;
61685;SDS011;47592;45.904;8.978;2024-03-22T13:26:40;22.60;;;14.43;;
61685;SDS011;47592;45.904;8.978;2024-03-22T13:29:05;20.77;;;14.88;;
61685;SDS011;47592;45.904;8.978;2024-03-22T13:31:30;24.38;;;14.65;;
61685;SDS011;47592;45.904;8.978;2024-03-22T13:33:56;24.15;;;14.20;;
61685;SDS011;47592;45.904;8.978;2024-03-22T13:36:21;20.08;;;14.05;;
61685;SDS011;47592;45.904;8.978;2024-03-22T13:38:50;22.60;;;14.80;;
61685;SDS011;47592;45.904;8.978;2024-03-22T13:41:18;21.98;;;13.88;;
61685;SDS011;47592;45.904;8.978;2024-03-22T13:43:44;22.77;;;14.50;;
61685;SDS011;47592;45.904;8.978;2024-03-22T13:46:13;23.38;;;13.82;;
61685;SDS011;47592;45.904;8.978;2024-03-22T13:48:42;21.23;;;13.98;;
61685;SDS011;47592;45.904;8.978;2024-03-22T13:51:08;22.10;;;14.45;;
61685;SDS011;47592;45.904;8.978;2024-03-22T13:53:33;21.48;;;14.05;;
61685;SDS011;47592;45.904;8.978;2024-03-22T13:56:01;19.98;;;12.95;;
61685;SDS011;47592;45.904;8.978;2024-03-22T13:58:26;20.10;;;13.52;;
61685;SDS011;47592;45.904;8.978;2024-03-22T14:00:52;21.17;;;13.48;;
61685;SDS011;47592;45.904;8.978;2024-03-22T14:03:19;21.98;;;15.23;;
61685;SDS011;47592;45.904;8.978;2024-03-22T14:05:45;21.35;;;13.82;;
61685;SDS011;47592;45.904;8.978;2024-03-22T14:08:10;25.33;;;15.65;;
61685;SDS011;47592;45.904;8.978;2024-03-22T14:10:36;24.30;;;14.70;;
61685;SDS011;47592;45.904;8.978;2024-03-22T14:13:02;25.50;;;14.88;;
61685;SDS011;47592;45.904;8.978;2024-03-22T14:15:28;23.52;;;15.05;;
61685;SDS011;47592;45.904;8.978;2024-03-22T14:17:57;22.70;;;15.75;;
61685;SDS011;47592;45.904;8.978;2024-03-22T14:20:25;21.55;;;15.00;;
61685;SDS011;47592;45.904;8.978;2024-03-22T14:22:53;20.65;;;14.80;;
61685;SDS011;47592;45.904;8.978;2024-03-22T14:25:19;22.85;;;15.93;;
61685;SDS011;47592;45.904;8.978;2024-03-22T14:27:45;22.38;;;15.48;;